Terminal Aerodrome Forecast
Issued by NWS Memphis, TN

Home | Current Version | Previous Version | Text Only | Print | Product List | Glossary On
Versions: 1 2 3 4 5 6 7 8 9 10 11 12
418
FTUS44 KMEG 160531
TAFMKL
TAF
KMKL 160531Z 1606/1706 20008KT P6SM SCT250
     FM161600 21009G15KT P6SM SCT250
     FM170000 18004KT P6SM SCT150 BKN250=

USA.gov is the U.S. government's official web portal to all federal, state and local government web resources and services.